Time;durP1;ratioP1;P1;durP2;ratioP2;P2;SDS_P1;SDS_P2;PMS_P1;PMS_P2;Temp;Humidity;BMP_temperature;BMP_pressure;BME280_temperature;BME280_humidity;BME280_pressure;Samples;Min_cycle;Max_cycle;Signal;HPM_P1;HPM_P2
2023/03/04 00:02:06;;;;;;;11.60;10.60;;;;;;;5.95;80.66;94952.94;5099472;28;20210;-72
2023/03/04 00:04:35;;;;;;;11.13;10.23;;;;;;;5.93;80.45;94945.06;5099441;28;20195;-72
2023/03/04 00:07:01;;;;;;;10.85;9.93;;;;;;;5.91;80.57;94950.00;5099713;28;20195;-72
2023/03/04 00:09:28;;;;;;;11.52;10.52;;;;;;;5.92;80.76;94946.19;5099055;28;20545;-72
2023/03/04 00:11:55;;;;;;;10.77;9.98;;;;;;;5.93;80.64;94956.00;5098824;28;20201;-72
2023/03/04 00:14:22;;;;;;;11.32;10.32;;;;;;;5.92;80.43;94948.06;5098662;28;20314;-72
2023/03/04 00:16:49;;;;;;;10.77;9.88;;;;;;;5.94;80.72;94941.19;5099152;28;20199;-72
2023/03/04 00:19:16;;;;;;;10.32;9.52;;;;;;;5.93;80.44;94945.06;5099141;28;20196;-72
2023/03/04 00:21:45;;;;;;;10.32;9.52;;;;;;;5.92;80.60;94937.13;5097821;28;20203;-72
2023/03/04 00:24:11;;;;;;;10.35;9.45;;;;;;;5.90;80.63;94942.94;5098929;28;20202;-72
2023/03/04 00:26:38;;;;;;;10.35;9.45;;;;;;;5.92;80.46;94942.59;5098805;28;20207;-72
2023/03/04 00:29:05;;;;;;;10.00;9.20;;;;;;;5.92;80.63;94937.97;5099265;28;20207;-72
2023/03/04 00:31:32;;;;;;;10.43;9.63;;;;;;;5.91;80.74;94928.09;5099124;28;20269;-72
2023/03/04 00:33:58;;;;;;;11.55;10.57;;;;;;;5.92;80.63;94929.75;5116373;28;20212;-72
2023/03/04 00:36:25;;;;;;;10.43;9.50;;;;;;;5.92;80.71;94929.75;5098629;28;20191;-72
2023/03/04 00:38:53;;;;;;;11.32;10.32;;;;;;;5.95;80.75;94926.34;5098349;28;20184;-72
2023/03/04 00:41:20;;;;;;;12.05;11.02;;;;;;;5.96;80.50;94929.91;5098627;28;20235;-72
2023/03/04 00:43:47;;;;;;;12.00;11.00;;;;;;;5.92;80.45;94931.66;5108226;28;20500;-72
2023/03/04 00:46:13;;;;;;;11.68;10.68;;;;;;;5.93;80.03;94930.56;5098614;28;20199;-72
2023/03/04 00:48:40;;;;;;;13.13;11.82;;;;;;;5.94;80.25;94929.44;5116219;28;20188;-72
2023/03/04 00:51:07;;;;;;;13.13;12.02;;;;;;;5.91;80.34;94924.56;5098891;28;20187;-72
2023/03/04 00:53:34;;;;;;;13.48;12.25;;;;;;;5.90;79.95;94922.97;5116254;28;20237;-72
2023/03/04 00:56:02;;;;;;;12.38;11.35;;;;;;;5.90;79.88;94928.44;5097922;28;20206;-72
2023/03/04 00:58:29;;;;;;;12.70;11.60;;;;;;;5.89;80.00;94926.84;5098113;28;20192;-72
2023/03/04 01:00:56;;;;;;;11.82;10.82;;;;;;;5.89;79.45;94927.66;5098464;28;20206;-72
2023/03/04 01:03:23;;;;;;;12.57;11.57;;;;;;;5.90;79.49;94920.22;5098083;28;20604;-72
2023/03/04 01:05:50;;;;;;;12.57;11.48;;;;;;;5.92;80.29;94927.03;5098168;28;20238;-72
2023/03/04 01:08:17;;;;;;;11.35;10.45;;;;;;;5.97;79.89;94923.31;5097978;28;20553;-72
2023/03/04 01:10:44;;;;;;;12.10;11.10;;;;;;;5.97;79.61;94924.09;5098217;28;20195;-72
2023/03/04 01:13:12;;;;;;;12.38;11.18;;;;;;;5.95;79.58;94917.34;5098000;28;20202;-72
2023/03/04 01:15:39;;;;;;;11.98;10.98;;;;;;;5.96;79.09;94916.22;5097925;28;20230;-72
2023/03/04 01:18:06;;;;;;;11.38;10.40;;;;;;;5.96;79.29;94916.22;5097962;28;20192;-72
2023/03/04 01:20:33;;;;;;;10.95;10.05;;;;;;;5.96;79.50;94911.56;5115851;28;20185;-72
2023/03/04 01:23:00;;;;;;;11.52;10.63;;;;;;;5.96;79.17;94917.03;5115705;28;20198;-73
2023/03/04 01:25:27;;;;;;;11.60;10.60;;;;;;;5.96;78.78;94916.22;5116072;28;20180;-73
2023/03/04 01:27:54;;;;;;;11.95;10.95;;;;;;;5.96;78.90;94908.00;5097639;28;20207;-72
2023/03/04 01:30:22;;;;;;;12.18;11.07;;;;;;;5.94;78.52;94911.06;5097906;28;20619;-72
2023/03/04 01:32:49;;;;;;;11.95;10.95;;;;;;;5.94;79.00;94905.59;5098049;28;20192;-72
2023/03/04 01:35:15;;;;;;;11.43;10.52;;;;;;;5.94;78.74;94904.78;5115312;28;20643;-73
2023/03/04 01:37:42;;;;;;;11.85;10.90;;;;;;;5.93;78.39;94906.72;5097490;28;20195;-71
2023/03/04 01:40:10;;;;;;;11.00;10.10;;;;;;;5.92;78.46;94901.53;5097482;28;20545;-71
2023/03/04 01:42:37;;;;;;;12.20;11.10;;;;;;;5.91;78.38;94895.25;5097969;28;20241;-71
2023/03/04 01:45:05;;;;;;;11.25;10.35;;;;;;;5.91;78.41;94889.78;5097571;28;20199;-71
2023/03/04 01:47:34;;;;;;;11.15;10.23;;;;;;;5.89;78.25;94886.59;5115295;28;20279;-71
2023/03/04 01:50:03;;;;;;;10.90;10.00;;;;;;;5.89;78.36;94885.78;5115575;28;20184;-71
2023/03/04 01:52:30;;;;;;;11.00;10.10;;;;;;;5.86;78.37;94889.16;5097755;28;20194;-71
2023/03/04 01:54:57;;;;;;;11.68;10.75;;;;;;;5.80;78.20;94883.84;5097988;28;20207;-71
2023/03/04 01:57:25;;;;;;;11.55;10.52;;;;;;;5.77;78.06;94884.53;5097307;28;20200;-71
2023/03/04 02:00:20;;;;;;;11.98;10.98;;;;;;;5.76;78.64;94882.91;5097794;28;20188;-71
2023/03/04 02:02:49;;;;;;;12.00;10.85;;;;;;;5.74;78.72;94887.13;5097343;28;20252;-71
2023/03/04 02:05:16;;;;;;;12.52;11.43;;;;;;;5.72;78.20;94884.69;5097862;28;20188;-71
2023/03/04 02:07:44;;;;;;;12.25;11.10;;;;;;;5.70;78.08;94886.13;5097183;28;20192;-71
2023/03/04 02:10:12;;;;;;;11.93;10.93;;;;;;;5.68;78.59;94883.75;5097572;28;20207;-71
2023/03/04 02:12:39;;;;;;;12.57;11.55;;;;;;;5.72;78.66;94889.38;5097759;28;20196;-71
2023/03/04 02:15:07;;;;;;;12.75;11.65;;;;;;;5.74;78.67;94876.97;5115388;28;20200;-71
2023/03/04 02:17:34;;;;;;;12.10;11.07;;;;;;;5.74;78.99;94878.91;5097451;28;20202;-71
2023/03/04 02:20:07;;;;;;;11.63;10.63;;;;;;;5.78;78.25;94879.88;5097445;28;20253;-71
2023/03/04 02:22:37;;;;;;;11.73;10.63;;;;;;;5.81;78.18;94884.69;5115350;28;20238;-71
2023/03/04 02:25:08;;;;;;;12.43;11.43;;;;;;;5.82;78.37;94874.53;5097731;28;20217;-71
2023/03/04 02:27:36;;;;;;;12.00;11.00;;;;;;;5.84;78.13;94875.78;5097136;28;20204;-71
2023/03/04 02:30:03;;;;;;;12.10;11.13;;;;;;;5.82;78.35;94869.88;5114925;28;20203;-71
2023/03/04 02:32:29;;;;;;;12.20;11.20;;;;;;;5.84;78.54;94875.78;5097202;28;20210;-71
2023/03/04 02:34:56;;;;;;;12.90;11.77;;;;;;;5.86;78.02;94872.75;5115018;28;20223;-71
2023/03/04 02:37:23;;;;;;;11.73;10.73;;;;;;;5.83;77.98;94873.41;5097107;28;20203;-71
2023/03/04 02:39:50;;;;;;;13.25;12.05;;;;;;;5.83;78.46;94867.94;5097164;28;20211;-71
2023/03/04 02:42:17;;;;;;;12.57;11.48;;;;;;;5.82;78.34;94866.31;5096838;28;20231;-71
2023/03/04 02:44:48;;;;;;;12.40;11.30;;;;;;;5.82;78.01;94867.13;5117498;28;20196;-71
2023/03/04 02:47:17;;;;;;;12.85;11.75;;;;;;;5.74;78.26;94863.28;5118681;28;20194;-71
2023/03/04 02:49:44;;;;;;;12.05;11.00;;;;;;;5.73;78.21;94858.94;5100483;28;20204;-71
2023/03/04 02:52:14;;;;;;;13.02;12.00;;;;;;;5.67;78.23;94857.53;5118425;28;20196;-71
2023/03/04 02:54:41;;;;;;;12.48;11.48;;;;;;;5.64;78.45;94854.63;5100458;28;20212;-71
2023/03/04 02:57:10;;;;;;;13.00;11.90;;;;;;;5.63;78.13;94855.75;5118444;28;20180;-71
2023/03/04 02:59:37;;;;;;;12.77;11.77;;;;;;;5.59;78.27;94860.25;5100752;28;20192;-71
2023/03/04 03:02:06;;;;;;;12.52;11.43;;;;;;;5.55;78.39;94858.22;5100393;28;20203;-71
2023/03/04 03:04:33;;;;;;;12.57;11.48;;;;;;;5.54;78.54;94851.09;5100705;28;20210;-71
2023/03/04 03:07:00;;;;;;;13.02;11.93;;;;;;;5.55;78.80;94852.72;5100385;28;20191;-71
2023/03/04 03:09:27;;;;;;;13.13;12.02;;;;;;;5.54;78.78;94856.56;5100504;28;20210;-71
2023/03/04 03:11:54;;;;;;;12.18;11.10;;;;;;;5.50;78.94;94863.84;5118093;28;20191;-71
2023/03/04 03:14:21;;;;;;;11.98;11.02;;;;;;;5.52;78.80;94858.84;5100081;28;20192;-71
2023/03/04 03:16:47;;;;;;;12.20;11.20;;;;;;;5.49;78.85;94862.22;5100394;28;20192;-71
2023/03/04 03:19:16;;;;;;;11.98;10.98;;;;;;;5.47;78.81;94861.75;5117896;28;20244;-71
2023/03/04 03:21:42;;;;;;;12.60;11.45;;;;;;;5.47;79.15;94860.94;5100205;28;20199;-71
2023/03/04 03:24:09;;;;;;;13.40;12.18;;;;;;;5.40;78.96;94858.69;5099853;28;20615;-70
2023/03/04 03:26:36;;;;;;;15.85;14.45;;;;;;;5.21;78.59;94853.59;5117833;28;20180;-71
2023/03/04 03:29:02;;;;;;;17.02;15.43;;;;;;;5.10;79.44;94857.00;5100445;28;20195;-71
2023/03/04 03:31:29;;;;;;;15.65;14.25;;;;;;;5.01;79.79;94863.28;5100023;28;20188;-71
2023/03/04 03:33:56;;;;;;;15.38;13.98;;;;;;;4.98;80.02;94865.84;5099755;28;20200;-71
2023/03/04 03:36:24;;;;;;;15.10;13.82;;;;;;;4.89;79.92;94865.03;5117562;28;20218;-71
2023/03/04 03:38:51;;;;;;;15.65;14.25;;;;;;;4.85;80.06;94859.41;5100357;28;20522;-71
2023/03/04 03:41:17;;;;;;;16.23;14.73;;;;;;;4.82;80.29;94857.31;5099840;28;20234;-71
2023/03/04 03:43:44;;;;;;;15.63;14.32;;;;;;;4.83;80.56;94856.22;5099685;28;20204;-71
2023/03/04 03:46:11;;;;;;;16.20;14.70;;;;;;;4.85;80.63;94862.13;5099619;28;20200;-71
2023/03/04 03:48:38;;;;;;;15.68;14.18;;;;;;;4.82;80.42;94855.38;5099722;28;20195;-71
2023/03/04 03:51:05;;;;;;;16.35;14.95;;;;;;;4.82;80.67;94860.84;5117354;28;20176;-71
2023/03/04 03:53:33;;;;;;;16.60;15.20;;;;;;;4.82;80.25;94857.31;5099256;28;20260;-71
2023/03/04 03:55:59;;;;;;;17.05;15.45;;;;;;;4.83;80.37;94857.00;5117187;28;20208;-71
2023/03/04 03:58:26;;;;;;;16.00;14.50;;;;;;;4.80;80.46;94854.91;5099304;28;20199;-71
2023/03/04 04:00:53;;;;;;;15.50;14.10;;;;;;;4.81;80.23;94850.25;5099155;28;20195;-71
2023/03/04 04:03:20;;;;;;;16.05;14.65;;;;;;;4.75;80.23;94852.31;5099544;28;20204;-71
2023/03/04 04:05:46;;;;;;;16.30;14.70;;;;;;;4.71;80.61;94845.91;5099036;28;20204;-71
2023/03/04 04:08:14;;;;;;;16.75;15.23;;;;;;;4.64;79.97;94847.50;5098943;28;20200;-71
2023/03/04 04:10:42;;;;;;;16.17;14.73;;;;;;;4.58;80.33;94842.22;5098840;28;20205;-71
2023/03/04 04:13:09;;;;;;;16.08;14.65;;;;;;;4.58;80.54;94838.69;5099486;28;20242;-71
2023/03/04 04:15:37;;;;;;;17.40;15.80;;;;;;;4.58;80.63;94834.00;5098852;28;20586;-71
2023/03/04 04:18:04;;;;;;;16.08;14.68;;;;;;;4.69;80.72;94836.44;5098716;28;20199;-71
2023/03/04 04:20:31;;;;;;;16.30;14.88;;;;;;;4.69;80.98;94836.44;5098993;28;20199;-71
2023/03/04 04:22:58;;;;;;;17.88;16.27;;;;;;;4.55;80.17;94842.84;5099125;28;20196;-71
2023/03/04 04:25:24;;;;;;;17.58;16.00;;;;;;;4.50;80.07;94829.34;5098982;28;20195;-71
2023/03/04 04:27:53;;;;;;;17.75;16.08;;;;;;;4.45;80.26;94837.69;5098896;28;20204;-72
2023/03/04 04:30:19;;;;;;;17.33;15.73;;;;;;;4.44;80.56;94838.03;5098824;28;20204;-71
2023/03/04 04:32:46;;;;;;;16.70;15.23;;;;;;;4.43;80.60;94842.69;5098476;28;20207;-72
2023/03/04 04:35:13;;;;;;;17.85;16.15;;;;;;;4.41;80.64;94838.66;5116575;28;20269;-71
2023/03/04 04:37:40;;;;;;;19.02;17.08;;;;;;;4.34;80.52;94837.19;5098835;28;20203;-71
2023/03/04 04:40:07;;;;;;;20.95;18.95;;;;;;;4.33;80.46;94843.78;5098448;28;20188;-71
2023/03/04 04:42:34;;;;;;;19.83;17.92;;;;;;;4.31;80.42;94837.81;5098205;28;20238;-72
2023/03/04 04:45:02;;;;;;;17.38;15.77;;;;;;;4.31;80.48;94837.81;5116796;28;20203;-72
2023/03/04 04:47:29;;;;;;;17.17;15.55;;;;;;;4.34;80.48;94836.38;5098398;28;20191;-72
2023/03/04 04:49:56;;;;;;;16.83;15.23;;;;;;;4.38;80.91;94840.09;5098893;28;20188;-71
2023/03/04 04:52:23;;;;;;;16.02;14.65;;;;;;;4.34;80.50;94844.59;5098232;28;20200;-71
2023/03/04 04:54:49;;;;;;;17.20;15.60;;;;;;;4.30;80.46;94836.22;5097858;28;20204;-71
2023/03/04 04:57:16;;;;;;;23.77;21.50;;;;;;;4.17;79.84;94837.16;5115928;28;20176;-71
2023/03/04 04:59:43;;;;;;;26.35;23.85;;;;;;;4.03;79.23;94848.22;5118835;27;20195;-71
2023/03/04 05:02:11;;;;;;;25.77;23.33;;;;;;;4.03;79.73;94850.13;5118685;27;20205;-71
2023/03/04 05:04:38;;;;;;;24.75;22.38;;;;;;;4.02;80.38;94857.50;5136672;27;20194;-71
2023/03/04 05:07:05;;;;;;;22.50;20.40;;;;;;;4.04;80.16;94862.66;5136160;27;20194;-71
2023/03/04 05:09:32;;;;;;;21.60;19.63;;;;;;;4.07;80.29;94871.03;5118641;27;20258;-71
2023/03/04 05:11:59;;;;;;;22.73;20.48;;;;;;;4.09;80.20;94867.97;5118285;27;20191;-72
2023/03/04 05:14:25;;;;;;;20.77;18.88;;;;;;;4.10;80.18;94869.56;5118315;27;20191;-71
2023/03/04 05:16:52;;;;;;;19.83;18.02;;;;;;;4.07;80.36;94867.50;5118225;27;20202;-71
2023/03/04 05:19:21;;;;;;;22.58;20.50;;;;;;;4.00;79.92;94876.13;5118221;27;20663;-71
2023/03/04 05:21:47;;;;;;;22.35;20.35;;;;;;;3.95;80.01;94868.06;5118538;27;20199;-70
2023/03/04 05:24:14;;;;;;;22.50;20.50;;;;;;;3.94;80.06;94871.94;5118018;27;20193;-71
2023/03/04 05:26:41;;;;;;;21.08;19.27;;;;;;;3.96;79.90;94874.34;5136260;27;20202;-71
2023/03/04 05:29:08;;;;;;;22.00;20.10;;;;;;;3.98;80.36;94880.28;5136060;27;20600;-71
2023/03/04 05:31:34;;;;;;;17.30;15.68;;;;;;;4.01;80.27;94877.72;5135982;27;20575;-71
2023/03/04 05:34:01;;;;;;;17.80;16.20;;;;;;;4.05;80.28;94878.72;5118186;27;20199;-71
2023/03/04 05:36:29;;;;;;;17.58;16.05;;;;;;;4.05;80.36;94888.81;5117928;27;20215;-71
2023/03/04 05:38:56;;;;;;;15.95;14.55;;;;;;;4.07;80.60;94878.41;5118286;28;20516;-71
2023/03/04 05:41:23;;;;;;;14.68;13.27;;;;;;;4.16;81.05;94878.44;5135942;28;20728;-71
2023/03/04 05:43:49;;;;;;;17.75;16.08;;;;;;;4.19;80.67;94883.25;5118528;28;20633;-71
2023/03/04 05:46:22;;;;;;;17.73;16.13;;;;;;;4.16;80.61;94897.53;5118211;28;20183;-71
2023/03/04 05:48:49;;;;;;;18.58;16.90;;;;;;;4.15;80.84;94890.47;5117910;28;20210;-71
2023/03/04 05:51:16;;;;;;;17.65;16.05;;;;;;;4.21;81.08;94889.19;5118260;28;20206;-71
2023/03/04 05:53:44;;;;;;;15.90;14.48;;;;;;;4.29;80.71;94893.88;5117684;28;20205;-71
2023/03/04 05:56:14;;;;;;;15.57;14.07;;;;;;;4.33;80.60;94884.75;5118277;28;20218;-71
2023/03/04 05:58:41;;;;;;;12.80;11.70;;;;;;;4.37;80.86;94900.50;5135739;28;20191;-71
2023/03/04 06:01:07;;;;;;;12.65;11.55;;;;;;;4.47;80.88;94890.06;5118168;28;20195;-72
2023/03/04 06:03:34;;;;;;;14.57;13.25;;;;;;;4.56;80.51;94899.06;5118226;28;20183;-72
2023/03/04 06:06:01;;;;;;;15.23;13.93;;;;;;;4.58;80.31;94901.50;5118268;28;20251;-73
2023/03/04 06:08:28;;;;;;;16.73;15.23;;;;;;;4.54;80.67;94904.06;5117422;28;20434;-73
2023/03/04 06:10:57;;;;;;;15.13;13.73;;;;;;;4.54;80.89;94908.72;5117867;28;20206;-72
2023/03/04 06:13:24;;;;;;;15.60;14.13;;;;;;;4.58;81.04;94906.97;5136175;28;20218;-70
2023/03/04 06:15:54;;;;;;;15.43;13.82;;;;;;;4.64;80.70;94904.88;5118321;28;20661;-69
2023/03/04 06:18:21;;;;;;;12.98;11.65;;;;;;;4.75;80.43;94900.69;5135646;27;20196;-72
2023/03/04 06:20:48;;;;;;;14.45;12.98;;;;;;;4.88;80.83;94897.03;5121816;27;20187;-70
2023/03/04 06:23:14;;;;;;;14.00;12.52;;;;;;;5.02;80.56;94914.06;5121520;27;20191;-70
2023/03/04 06:25:41;;;;;;;15.18;13.68;;;;;;;5.12;80.98;94907.50;5139694;27;20437;-70
2023/03/04 06:28:09;;;;;;;15.18;13.68;;;;;;;5.24;80.41;94915.03;5122150;27;20190;-68
2023/03/04 06:30:36;;;;;;;15.52;13.93;;;;;;;5.34;80.24;94911.16;5139408;27;20175;-69
2023/03/04 06:33:03;;;;;;;16.10;14.57;;;;;;;5.40;79.64;94910.66;5139326;27;20183;-68
2023/03/04 06:35:30;;;;;;;16.23;14.52;;;;;;;5.50;79.36;94912.28;5139664;27;20217;-71
2023/03/04 06:37:57;;;;;;;16.52;14.82;;;;;;;5.59;79.31;94909.50;5139238;27;20187;-72
2023/03/04 06:40:23;;;;;;;16.77;15.18;;;;;;;5.67;79.75;94911.44;5139648;27;20183;-72
2023/03/04 06:42:50;;;;;;;15.25;13.75;;;;;;;5.69;79.11;94915.44;5117982;28;20227;-72
2023/03/04 06:45:19;;;;;;;14.70;13.20;;;;;;;5.73;79.12;94923.81;5118046;28;20204;-72
2023/03/04 06:47:45;;;;;;;12.00;10.82;;;;;;;5.77;78.89;94920.13;5117928;28;20202;-72
2023/03/04 06:50:13;;;;;;;10.20;9.30;;;;;;;5.76;78.43;94913.00;5118031;28;20205;-71
2023/03/04 06:52:40;;;;;;;10.55;9.48;;;;;;;5.80;78.15;94918.63;5100784;28;20203;-71
2023/03/04 06:55:09;;;;;;;9.68;8.73;;;;;;;5.82;78.00;94919.13;5100674;28;20188;-72
2023/03/04 06:57:36;;;;;;;9.63;8.73;;;;;;;5.86;77.78;94922.03;5100758;28;20215;-71
2023/03/04 07:00:03;;;;;;;9.18;8.27;;;;;;;5.92;78.15;94932.50;5118515;28;20227;-72
2023/03/04 07:02:31;;;;;;;8.80;7.90;;;;;;;5.98;77.12;94927.63;5100577;28;20208;-71
2023/03/04 07:04:58;;;;;;;10.20;8.80;;;;;;;5.98;76.63;94928.44;5100642;28;20207;-71
2023/03/04 07:07:26;;;;;;;10.82;8.88;;;;;;;5.97;76.12;94923.31;5117979;28;20195;-69
2023/03/04 07:09:52;;;;;;;10.10;9.10;;;;;;;5.94;75.47;94924.75;5100090;28;20194;-70
2023/03/04 07:12:19;;;;;;;10.50;9.15;;;;;;;5.96;75.76;94927.19;5118117;28;20202;-69
2023/03/04 07:14:46;;;;;;;11.70;8.57;;;;;;;6.03;75.63;94930.22;5118171;28;20199;-70
2023/03/04 07:17:13;;;;;;;8.75;7.85;;;;;;;6.02;75.33;94929.38;5117885;28;20199;-69
2023/03/04 07:19:41;;;;;;;9.68;8.77;;;;;;;6.11;75.10;94926.63;5100197;28;20207;-71
2023/03/04 07:22:08;;;;;;;11.75;9.02;;;;;;;6.10;74.85;94930.50;5118007;28;20187;-70
2023/03/04 07:24:35;;;;;;;9.57;8.70;;;;;;;6.15;75.54;94933.06;5099799;28;20196;-70
2023/03/04 07:27:01;;;;;;;9.80;8.35;;;;;;;6.17;75.08;94933.56;5117694;28;20172;-70
2023/03/04 07:29:28;;;;;;;8.63;7.93;;;;;;;6.24;74.64;94939.28;5099813;28;20206;-71
2023/03/04 07:31:55;;;;;;;9.18;8.15;;;;;;;6.28;74.56;94931.22;5100147;28;20628;-70
2023/03/04 07:34:22;;;;;;;9.80;8.82;;;;;;;6.33;75.15;94930.25;5100391;28;20208;-70
2023/03/04 07:36:50;;;;;;;9.88;8.98;;;;;;;6.40;75.53;94928.59;5117423;28;20192;-70
2023/03/04 07:39:17;;;;;;;10.32;9.32;;;;;;;6.48;75.34;94932.44;5099974;28;20203;-70
2023/03/04 07:41:46;;;;;;;11.32;10.13;;;;;;;6.54;74.67;94936.59;5117834;28;20254;-70
2023/03/04 07:44:13;;;;;;;11.57;10.38;;;;;;;6.53;73.72;94932.22;5118684;28;20257;-70
2023/03/04 07:46:40;;;;;;;12.27;10.98;;;;;;;6.59;74.40;94930.13;5099564;28;20203;-70
2023/03/04 07:49:08;;;;;;;11.05;10.02;;;;;;;6.67;74.21;94927.31;5100012;28;20200;-70
2023/03/04 07:51:34;;;;;;;12.13;10.57;;;;;;;6.74;73.70;94929.53;5099486;28;20207;-69
2023/03/04 07:54:03;;;;;;;11.55;10.35;;;;;;;6.78;73.76;94926.94;5100212;28;20198;-70
2023/03/04 07:56:31;;;;;;;10.77;9.70;;;;;;;6.76;73.04;94924.53;5099862;28;20549;-70
2023/03/04 07:58:58;;;;;;;11.57;10.50;;;;;;;6.78;72.80;94918.72;5100193;28;20290;-70
2023/03/04 08:01:29;;;;;;;11.73;10.65;;;;;;;6.80;72.64;94924.69;5099950;28;20203;-70
2023/03/04 08:03:56;;;;;;;11.55;10.30;;;;;;;6.80;72.41;94921.94;5099539;28;20204;-70
2023/03/04 08:06:25;;;;;;;11.10;10.10;;;;;;;6.75;71.36;94925.66;5117027;28;20222;-70
2023/03/04 08:08:56;;;;;;;10.70;9.70;;;;;;;6.75;71.83;94921.00;5099597;28;20203;-70
2023/03/04 08:11:25;;;;;;;11.00;9.63;;;;;;;6.75;71.66;94922.91;5099922;28;20207;-70
2023/03/04 08:13:53;;;;;;;10.98;9.98;;;;;;;6.73;71.54;94925.22;5117386;28;20198;-70
2023/03/04 08:16:21;;;;;;;12.55;10.52;;;;;;;6.74;71.60;94924.88;5099633;28;20211;-70
2023/03/04 08:18:50;;;;;;;12.18;11.02;;;;;;;6.75;71.83;94925.66;5117790;28;20194;-70
2023/03/04 08:21:18;;;;;;;12.23;11.02;;;;;;;6.73;72.27;94917.78;5117926;28;20194;-70
2023/03/04 08:23:45;;;;;;;11.32;10.23;;;;;;;6.72;71.95;94916.19;5117721;28;20204;-70
2023/03/04 08:26:15;;;;;;;13.30;10.50;;;;;;;6.71;71.41;94921.97;5100182;28;20191;-70
2023/03/04 08:28:44;;;;;;;11.93;10.73;;;;;;;6.68;71.71;94915.25;5117921;28;20184;-70
2023/03/04 08:31:12;;;;;;;9.88;8.95;;;;;;;6.71;71.55;94927.47;5117610;28;20184;-68
2023/03/04 08:33:39;;;;;;;9.98;8.10;;;;;;;6.71;71.86;94917.28;5099220;28;20207;-71
2023/03/04 08:36:06;;;;;;;8.60;7.82;;;;;;;6.70;70.90;94912.97;5098696;28;20199;-71
2023/03/04 08:38:34;;;;;;;8.93;7.88;;;;;;;6.70;71.21;94918.44;5116624;28;20253;-71
2023/03/04 08:41:01;;;;;;;8.88;8.02;;;;;;;6.68;70.67;94915.25;5116002;28;20250;-71
2023/03/04 08:43:28;;;;;;;9.40;8.38;;;;;;;6.70;71.01;94914.91;5116211;28;20206;-71
2023/03/04 08:45:58;;;;;;;9.95;8.30;;;;;;;6.74;70.82;94904.88;5098109;28;20202;-71
2023/03/04 08:48:26;;;;;;;9.75;8.85;;;;;;;6.77;70.73;94908.91;5098164;28;20200;-71
2023/03/04 08:50:53;;;;;;;9.65;8.68;;;;;;;6.86;71.33;94912.38;5116104;28;20669;-71
2023/03/04 08:53:21;;;;;;;9.77;8.82;;;;;;;6.94;70.92;94904.09;5099164;28;20192;-68
2023/03/04 08:55:48;;;;;;;8.70;7.90;;;;;;;7.07;70.83;94904.16;5116799;28;20183;-69
2023/03/04 08:58:15;;;;;;;7.25;6.55;;;;;;;7.15;69.81;94904.13;5116892;28;20221;-70
2023/03/04 09:00:47;;;;;;;8.32;6.95;;;;;;;7.20;68.90;94906.63;5098551;28;20290;-70
2023/03/04 09:03:17;;;;;;;8.70;7.82;;;;;;;7.29;68.56;94900.28;5099152;28;20250;-70
2023/03/04 09:05:45;;;;;;;9.02;7.05;;;;;;;7.37;68.21;94908.44;5116512;28;20218;-70
2023/03/04 09:08:12;;;;;;;8.27;7.47;;;;;;;7.45;68.38;94899.31;5099609;28;20184;-70
2023/03/04 09:10:38;;;;;;;8.00;7.20;;;;;;;7.58;67.97;94897.41;5098631;28;20187;-70
2023/03/04 09:13:06;;;;;;;8.18;7.47;;;;;;;7.70;67.37;94894.72;5116893;28;20191;-70
2023/03/04 09:15:34;;;;;;;8.85;7.57;;;;;;;7.79;67.40;94893.81;5098329;28;20203;-70
2023/03/04 09:18:02;;;;;;;8.38;7.63;;;;;;;7.95;68.47;94884.59;5116514;28;20203;-69
2023/03/04 09:20:30;;;;;;;7.75;6.68;;;;;;;8.04;66.92;94880.94;5098784;28;20236;-70
2023/03/04 09:22:57;;;;;;;7.90;7.10;;;;;;;8.13;66.83;94884.38;5098651;28;20187;-70
2023/03/04 09:25:24;;;;;;;6.75;6.03;;;;;;;8.20;67.43;94881.88;5098692;28;20204;-70
2023/03/04 09:27:50;;;;;;;7.50;6.57;;;;;;;8.25;67.46;94880.88;5116199;28;20192;-70
2023/03/04 09:30:18;;;;;;;7.78;6.63;;;;;;;8.27;67.34;94878.56;5115755;28;20608;-70
2023/03/04 09:32:44;;;;;;;7.93;6.82;;;;;;;8.24;66.56;94873.75;5098156;28;20206;-70
2023/03/04 09:35:11;;;;;;;9.37;8.30;;;;;;;8.14;66.27;94875.81;5098933;28;20200;-70
2023/03/04 09:37:39;;;;;;;9.82;7.53;;;;;;;8.04;67.79;94873.50;5097694;28;20211;-70
2023/03/04 09:40:08;;;;;;;8.70;7.90;;;;;;;7.96;67.56;94869.72;5098366;28;20203;-70
2023/03/04 09:42:37;;;;;;;8.07;7.30;;;;;;;7.90;67.81;94870.28;5115849;28;20227;-70
2023/03/04 09:45:06;;;;;;;9.45;8.45;;;;;;;7.90;68.10;94867.53;5098292;28;20203;-70
2023/03/04 09:47:35;;;;;;;10.25;9.15;;;;;;;7.91;68.37;94864.44;5097794;28;20207;-70
2023/03/04 09:50:05;;;;;;;9.60;8.70;;;;;;;7.87;67.39;94865.47;5098268;28;20195;-70
2023/03/04 09:52:42;;;;;;;9.73;7.45;;;;;;;7.81;67.62;94864.09;5098297;28;20203;-70
2023/03/04 09:55:18;;;;;;;9.32;8.25;;;;;;;7.84;68.87;94866.97;5102881;28;20197;-70
2023/03/04 09:57:49;;;;;;;9.10;8.30;;;;;;;7.85;68.79;94860.31;5102746;28;20215;-70
2023/03/04 10:00:20;;;;;;;9.63;8.73;;;;;;;7.89;69.70;94863.19;5120601;28;20202;-70
2023/03/04 10:03:08;;;;;;;8.98;8.07;;;;;;;7.88;68.88;94856.91;5120061;28;20206;-70
2023/03/04 10:05:39;;;;;;;9.48;8.50;;;;;;;7.86;68.65;94863.88;5118002;28;20208;-70
2023/03/04 10:08:24;;;;;;;9.23;8.35;;;;;;;7.89;69.47;94847.50;5101839;28;20195;-70
2023/03/04 10:10:52;;;;;;;12.05;9.60;;;;;;;7.95;69.26;94848.06;5101731;28;20206;-70
2023/03/04 10:13:24;;;;;;;10.90;9.80;;;;;;;8.02;69.44;94844.78;5102467;28;20199;-70
2023/03/04 10:15:52;;;;;;;11.02;9.93;;;;;;;8.05;69.61;94844.88;5119898;28;20191;-70
2023/03/04 10:18:21;;;;;;;11.02;10.00;;;;;;;8.05;69.40;94842.16;5101806;28;20225;-70
2023/03/04 10:20:54;;;;;;;11.18;10.07;;;;;;;8.07;69.78;94837.13;5101798;28;20241;-70
2023/03/04 10:23:26;;;;;;;12.07;10.77;;;;;;;8.11;69.98;94832.53;5119940;28;20195;-70
2023/03/04 10:25:53;;;;;;;13.90;12.45;;;;;;;8.15;69.14;94835.41;5101710;28;20202;-70
2023/03/04 10:28:24;;;;;;;12.07;10.98;;;;;;;8.20;68.88;94832.41;5101992;28;20196;-70
2023/03/04 10:30:55;;;;;;;9.60;8.70;;;;;;;8.19;67.63;94828.06;5101080;28;20219;-70
2023/03/04 10:33:23;;;;;;;10.93;9.55;;;;;;;8.14;69.03;94822.81;5101279;28;20204;-70
2023/03/04 10:35:53;;;;;;;10.77;9.68;;;;;;;8.13;68.65;94821.19;5119397;28;20188;-70
2023/03/04 10:38:22;;;;;;;10.50;9.35;;;;;;;8.12;68.96;94817.66;5101421;28;20230;-70
2023/03/04 10:40:50;;;;;;;9.70;8.70;;;;;;;8.15;69.68;94813.44;5101242;28;20198;-70
2023/03/04 10:43:18;;;;;;;10.40;9.35;;;;;;;8.16;69.58;94809.53;5101167;28;20203;-70
2023/03/04 10:45:46;;;;;;;11.73;10.10;;;;;;;8.10;68.89;94808.19;5101310;28;20214;-70
2023/03/04 10:48:22;;;;;;;12.27;10.85;;;;;;;8.07;69.13;94804.16;5101125;28;20192;-70
2023/03/04 10:50:49;;;;;;;11.52;10.43;;;;;;;8.04;68.54;94802.09;5118603;28;20627;-70
2023/03/04 10:53:28;;;;;;;13.15;11.63;;;;;;;8.05;68.44;94789.16;5118901;28;20203;-70
2023/03/04 10:55:56;;;;;;;12.65;11.43;;;;;;;8.04;68.60;94784.81;5101291;28;20215;-70
2023/03/04 10:58:22;;;;;;;15.90;11.73;;;;;;;8.07;69.13;94784.94;5101171;28;20215;-70
2023/03/04 11:01:00;;;;;;;13.30;12.00;;;;;;;8.07;69.26;94789.63;5119180;28;20202;-69
2023/03/04 11:03:31;;;;;;;13.43;11.43;;;;;;;8.08;69.61;94785.72;5101387;28;20187;-70
2023/03/04 11:06:16;;;;;;;12.63;11.43;;;;;;;8.06;69.77;94783.34;5100247;28;20204;-70
2023/03/04 11:08:44;;;;;;;12.90;11.25;;;;;;;8.02;68.77;94781.59;5118860;28;20252;-70
2023/03/04 11:11:28;;;;;;;13.27;12.00;;;;;;;7.99;68.99;94774.88;5118952;28;20180;-70
2023/03/04 11:13:58;;;;;;;12.82;11.43;;;;;;;7.98;69.13;94767.75;5100628;28;20239;-70
2023/03/04 11:16:27;;;;;;;12.07;10.98;;;;;;;7.99;69.03;94766.63;5100748;28;20200;-70
2023/03/04 11:18:55;;;;;;;12.50;11.40;;;;;;;7.99;69.39;94758.41;5100699;28;20261;-70
2023/03/04 11:21:24;;;;;;;12.95;11.65;;;;;;;8.03;70.41;94758.50;5100026;28;20626;-70
2023/03/04 11:23:53;;;;;;;13.27;11.45;;;;;;;8.04;69.51;94749.13;5101390;28;20195;-70
2023/03/04 11:26:22;;;;;;;11.68;10.57;;;;;;;8.08;70.16;94744.53;5101043;28;20192;-70
2023/03/04 11:28:53;;;;;;;13.02;11.82;;;;;;;8.11;70.00;94744.63;5101021;28;20206;-70
2023/03/04 11:31:23;;;;;;;13.70;12.23;;;;;;;8.15;69.65;94737.31;5118312;28;20192;-70
2023/03/04 11:33:53;;;;;;;12.30;11.10;;;;;;;8.22;70.17;94742.22;5118430;28;20592;-70